createdAt,value
2023-05-23T00:01:08.697Z,14.39
2023-05-23T00:03:37.828Z,14.27
2023-05-23T00:06:06.995Z,14.30
2023-05-23T00:08:35.210Z,14.19
2023-05-23T00:11:02.912Z,14.26
2023-05-23T00:13:33.632Z,14.24
2023-05-23T00:16:02.751Z,14.22
2023-05-23T00:18:30.821Z,14.17
2023-05-23T00:20:59.414Z,14.15
2023-05-23T00:23:29.884Z,14.13
2023-05-23T00:25:58.726Z,14.08
2023-05-23T00:28:26.968Z,14.08
2023-05-23T00:30:54.594Z,14.04
2023-05-23T00:33:22.839Z,13.94
2023-05-23T00:38:36.048Z,14.00
2023-05-23T00:41:03.863Z,13.96
2023-05-23T00:43:31.850Z,13.93
2023-05-23T00:46:01.072Z,13.92
2023-05-23T00:48:29.922Z,13.79
2023-05-23T00:50:58.735Z,13.85
2023-05-23T00:53:27.209Z,13.85
2023-05-23T00:55:55.334Z,13.86
2023-05-23T00:58:24.289Z,13.87
2023-05-23T01:00:54.642Z,13.80
2023-05-23T01:03:24.039Z,13.81
2023-05-23T01:05:51.998Z,13.89
2023-05-23T01:08:19.861Z,13.87
2023-05-23T01:10:47.800Z,13.81
2023-05-23T01:13:37.451Z,13.93
2023-05-23T01:16:10.144Z,13.85
2023-05-23T01:18:59.329Z,13.84
2023-05-23T01:21:27.750Z,13.87
2023-05-23T01:24:07.861Z,13.91
2023-05-23T01:26:49.284Z,13.87
2023-05-23T01:29:36.489Z,13.96
2023-05-23T01:32:08.508Z,13.95
2023-05-23T01:34:38.577Z,13.94
2023-05-23T01:37:14.870Z,13.96
2023-05-23T01:39:42.786Z,13.93
2023-05-23T01:42:10.904Z,13.91
2023-05-23T01:44:38.810Z,13.86
2023-05-23T01:47:09.993Z,13.92
2023-05-23T01:49:39.190Z,13.99
2023-05-23T01:52:10.012Z,14.04
2023-05-23T01:54:42.702Z,14.07
2023-05-23T01:57:12.168Z,14.00
2023-05-23T01:59:40.078Z,14.08
2023-05-23T02:02:08.177Z,14.11
2023-05-23T02:04:36.257Z,14.17
2023-05-23T02:07:04.012Z,14.20
2023-05-23T02:09:31.722Z,14.17
2023-05-23T02:11:59.841Z,14.34
2023-05-23T02:14:28.604Z,14.38
2023-05-23T02:16:56.524Z,14.42
2023-05-23T02:19:24.631Z,14.44
2023-05-23T02:21:52.273Z,14.47
2023-05-23T02:24:19.963Z,14.46
2023-05-23T02:26:47.528Z,14.62
2023-05-23T02:29:15.186Z,14.64
2023-05-23T02:31:42.930Z,14.65
2023-05-23T02:34:10.887Z,14.56
2023-05-23T02:36:39.519Z,14.67
2023-05-23T02:39:07.672Z,14.66
2023-05-23T02:41:35.533Z,14.59
2023-05-23T02:44:03.431Z,14.70
2023-05-23T02:46:31.228Z,14.77
2023-05-23T02:48:58.923Z,14.82
2023-05-23T02:51:27.683Z,14.87
2023-05-23T02:53:55.624Z,14.89
2023-05-23T02:56:23.815Z,14.83
2023-05-23T02:58:52.755Z,14.94
2023-05-23T03:01:20.593Z,14.99
2023-05-23T03:03:48.497Z,14.94
2023-05-23T03:06:17.088Z,15.00
2023-05-23T03:08:45.218Z,15.03
2023-05-23T03:11:12.872Z,15.05
2023-05-23T03:13:40.481Z,15.10
2023-05-23T03:16:08.074Z,15.19
2023-05-23T03:18:36.033Z,15.37
2023-05-23T03:21:03.819Z,15.45
2023-05-23T03:23:31.554Z,15.51
2023-05-23T03:25:59.994Z,15.72
2023-05-23T03:28:28.321Z,15.78
2023-05-23T03:30:55.970Z,15.89
2023-05-23T03:33:23.586Z,15.88
2023-05-23T03:35:51.653Z,16.05
2023-05-23T03:38:19.544Z,16.17
2023-05-23T03:40:47.447Z,16.19
2023-05-23T03:43:16.106Z,16.36
2023-05-23T03:45:45.081Z,16.42
2023-05-23T03:48:16.940Z,16.53
2023-05-23T03:50:44.869Z,16.54
2023-05-23T03:53:13.177Z,16.72
2023-05-23T03:55:42.543Z,16.83
2023-05-23T03:58:10.724Z,16.89
2023-05-23T04:00:41.008Z,16.92
2023-05-23T04:03:10.860Z,16.88
2023-05-23T04:05:40.994Z,16.89
2023-05-23T04:08:10.150Z,16.92
2023-05-23T04:10:37.922Z,16.93
2023-05-23T04:13:06.607Z,16.88
2023-05-23T04:15:34.482Z,16.82
2023-05-23T04:18:09.421Z,16.92
2023-05-23T04:20:37.853Z,16.86
2023-05-23T04:23:06.215Z,16.84
2023-05-23T04:25:36.927Z,16.73
2023-05-23T04:28:15.144Z,16.83
2023-05-23T04:30:44.816Z,16.81
2023-05-23T04:33:13.537Z,16.95
2023-05-23T04:35:41.933Z,17.00
2023-05-23T04:38:10.352Z,17.10
2023-05-23T04:40:38.415Z,17.20
2023-05-23T04:43:20.058Z,17.27
2023-05-23T04:45:57.878Z,17.35
2023-05-23T04:48:38.964Z,17.49
2023-05-23T04:51:08.632Z,17.56
2023-05-23T04:53:41.688Z,17.61
2023-05-23T04:56:11.171Z,17.60
2023-05-23T04:58:42.226Z,17.70
2023-05-23T05:01:12.073Z,17.84
2023-05-23T05:03:40.236Z,17.81
2023-05-23T05:06:08.343Z,17.84
2023-05-23T05:08:37.065Z,17.91
2023-05-23T05:11:05.581Z,17.90
2023-05-23T05:13:33.675Z,17.99
2023-05-23T05:16:01.853Z,18.05
2023-05-23T05:18:30.607Z,18.11
2023-05-23T05:20:59.813Z,18.21
2023-05-23T05:23:29.077Z,18.22
2023-05-23T05:25:57.766Z,18.09
2023-05-23T05:28:25.398Z,18.03
2023-05-23T05:30:54.697Z,17.75
2023-05-23T05:33:28.554Z,17.65
2023-05-23T05:36:14.188Z,17.70
2023-05-23T05:38:42.508Z,17.72
2023-05-23T05:41:10.546Z,17.77
2023-05-23T05:43:43.191Z,17.72
2023-05-23T05:46:11.655Z,17.76
2023-05-23T05:48:39.388Z,17.92
2023-05-23T05:51:09.618Z,17.88
2023-05-23T05:53:37.645Z,17.94
2023-05-23T05:56:06.253Z,18.16
2023-05-23T05:58:34.084Z,18.25
2023-05-23T06:01:05.834Z,18.20
2023-05-23T06:03:34.433Z,18.21
2023-05-23T06:06:02.446Z,18.25
2023-05-23T06:08:30.562Z,18.28
2023-05-23T06:10:58.371Z,18.32
2023-05-23T06:13:27.307Z,18.39
2023-05-23T06:15:55.756Z,18.50
2023-05-23T06:18:24.596Z,18.59
2023-05-23T06:20:53.094Z,18.83
2023-05-23T06:23:22.562Z,18.90
2023-05-23T06:25:50.513Z,19.05
2023-05-23T06:28:18.283Z,19.25
2023-05-23T06:30:47.307Z,19.44
2023-05-23T06:33:16.337Z,19.55
2023-05-23T06:35:44.003Z,19.87
2023-05-23T06:38:11.698Z,20.18
2023-05-23T06:40:41.641Z,20.41
2023-05-23T06:43:11.203Z,20.65
2023-05-23T06:45:47.891Z,20.62
2023-05-23T06:48:16.337Z,20.45
2023-05-23T06:50:45.937Z,20.65
2023-05-23T06:53:13.743Z,20.93
2023-05-23T06:55:42.757Z,21.55
2023-05-23T06:58:13.554Z,22.05
2023-05-23T07:00:41.557Z,22.27
2023-05-23T07:03:16.792Z,22.61
2023-05-23T07:05:45.020Z,22.95
2023-05-23T07:08:16.034Z,23.26
2023-05-23T07:10:56.076Z,23.51
2023-05-23T07:13:31.560Z,23.52
2023-05-23T07:16:00.103Z,23.34
2023-05-23T07:18:27.944Z,23.58
2023-05-23T07:20:57.400Z,23.81
2023-05-23T07:23:25.892Z,24.01
2023-05-23T07:26:01.801Z,24.19
2023-05-23T07:28:40.692Z,24.12
2023-05-23T07:31:10.118Z,24.14
2023-05-23T07:33:39.006Z,24.29
2023-05-23T07:36:08.848Z,24.38
2023-05-23T07:38:36.577Z,24.45
2023-05-23T07:41:11.470Z,24.74
2023-05-23T07:43:40.923Z,24.88
2023-05-23T07:46:09.091Z,24.69
2023-05-23T07:48:38.392Z,24.61
2023-05-23T07:51:06.227Z,24.91
2023-05-23T07:53:35.087Z,25.28
2023-05-23T07:56:04.638Z,25.30
2023-05-23T07:58:37.464Z,25.23
2023-05-23T08:01:05.709Z,25.10
2023-05-23T08:03:52.056Z,24.87
2023-05-23T08:06:26.634Z,24.53
2023-05-23T08:08:56.151Z,24.42
2023-05-23T08:14:17.709Z,24.86
2023-05-23T08:16:55.646Z,24.86
2023-05-23T08:19:27.069Z,24.91
2023-05-23T08:21:55.055Z,25.09
2023-05-23T08:24:22.754Z,25.23
2023-05-23T08:26:50.999Z,25.45
2023-05-23T08:29:19.577Z,25.70
2023-05-23T08:31:47.982Z,25.77
2023-05-23T08:34:17.231Z,25.74
2023-05-23T08:36:46.002Z,25.93
2023-05-23T08:39:18.826Z,26.19
2023-05-23T08:41:53.704Z,26.22
2023-05-23T08:44:21.531Z,26.20
2023-05-23T08:46:54.294Z,26.44
2023-05-23T08:49:49.234Z,26.66
2023-05-23T08:52:22.268Z,26.62
2023-05-23T08:54:53.282Z,26.44
2023-05-23T08:57:21.255Z,26.22
2023-05-23T08:59:55.301Z,25.81
2023-05-23T09:02:25.089Z,25.46
2023-05-23T09:04:59.828Z,25.21
2023-05-23T09:07:29.256Z,24.82
2023-05-23T09:09:58.530Z,24.36
2023-05-23T09:12:26.353Z,24.20
2023-05-23T09:14:54.002Z,24.48
2023-05-23T09:17:24.317Z,24.96
2023-05-23T09:19:53.186Z,25.37
2023-05-23T09:22:41.868Z,25.70
2023-05-23T09:25:15.722Z,25.93
2023-05-23T09:30:40.002Z,25.57
2023-05-23T09:33:09.095Z,25.28
2023-05-23T09:35:44.494Z,24.82
2023-05-23T09:38:12.847Z,24.29
2023-05-23T09:40:45.612Z,23.70
2023-05-23T09:43:17.504Z,23.15
2023-05-23T09:45:45.915Z,22.72
2023-05-23T09:48:16.101Z,22.41
2023-05-23T09:50:47.213Z,22.05
2023-05-23T09:53:16.298Z,21.96
2023-05-23T09:55:45.136Z,21.85
2023-05-23T09:58:13.987Z,21.51
2023-05-23T10:00:42.029Z,21.35
2023-05-23T10:03:13.927Z,21.23
2023-05-23T10:05:49.227Z,21.07
2023-05-23T10:08:30.220Z,21.04
2023-05-23T10:10:57.995Z,20.80
2023-05-23T10:13:27.321Z,20.70
2023-05-23T10:16:14.270Z,20.81
2023-05-23T10:18:45.686Z,20.75
2023-05-23T10:21:19.030Z,20.85
2023-05-23T10:23:48.854Z,20.58
2023-05-23T10:26:18.048Z,20.43
2023-05-23T10:28:50.111Z,20.36
2023-05-23T10:31:17.984Z,20.26
2023-05-23T10:33:53.596Z,20.12
2023-05-23T10:36:33.970Z,20.06
2023-05-23T10:39:27.081Z,20.05
2023-05-23T10:42:03.346Z,19.79
2023-05-23T10:44:31.410Z,19.54
2023-05-23T10:47:04.694Z,19.36
2023-05-23T10:49:40.068Z,19.32
2023-05-23T10:52:09.204Z,19.16
2023-05-23T10:54:45.045Z,19.00
2023-05-23T10:57:17.438Z,18.74
2023-05-23T10:59:47.194Z,18.66
2023-05-23T11:02:17.177Z,18.58
2023-05-23T11:04:45.928Z,18.54
2023-05-23T11:07:32.470Z,18.55
2023-05-23T11:10:11.626Z,18.51
2023-05-23T11:12:42.546Z,18.45
2023-05-23T11:15:21.668Z,18.48
2023-05-23T11:17:57.752Z,18.35
2023-05-23T11:20:28.345Z,18.26
2023-05-23T11:23:04.163Z,18.23
2023-05-23T11:25:54.039Z,18.23
2023-05-23T11:28:21.986Z,18.05
2023-05-23T11:30:50.014Z,18.06
2023-05-23T11:33:18.911Z,17.91
2023-05-23T11:35:48.389Z,17.89
2023-05-23T11:38:17.139Z,17.76
2023-05-23T11:40:46.595Z,17.84
2023-05-23T11:43:16.912Z,17.81
2023-05-23T11:45:48.316Z,17.83
2023-05-23T11:48:18.021Z,17.71
2023-05-23T11:50:50.806Z,17.72
2023-05-23T11:53:22.380Z,17.85
2023-05-23T11:55:55.682Z,17.96
2023-05-23T11:58:27.177Z,18.13
2023-05-23T12:01:06.474Z,18.33
2023-05-23T12:03:36.080Z,18.42
2023-05-23T12:06:04.006Z,18.58
2023-05-23T12:08:31.528Z,18.75
2023-05-23T12:11:01.474Z,18.78
2023-05-23T12:13:30.453Z,18.96
2023-05-23T12:16:03.141Z,19.17
2023-05-23T12:18:32.778Z,19.21
2023-05-23T12:21:03.275Z,19.42
2023-05-23T12:23:34.771Z,19.44
2023-05-23T12:26:07.920Z,19.64
2023-05-23T12:28:38.230Z,19.72
2023-05-23T12:31:27.382Z,19.94
2023-05-23T12:33:55.186Z,19.95
2023-05-23T12:36:26.388Z,20.07
2023-05-23T12:38:54.404Z,20.12
2023-05-23T12:41:22.342Z,20.23
2023-05-23T12:43:52.400Z,20.28
2023-05-23T12:46:22.188Z,20.44
2023-05-23T12:48:50.122Z,20.63
2023-05-23T12:51:18.066Z,20.70
2023-05-23T12:53:45.955Z,20.70
2023-05-23T12:56:13.713Z,20.66
2023-05-23T12:58:41.503Z,20.68
2023-05-23T13:01:09.420Z,20.66
2023-05-23T13:03:38.553Z,20.83
2023-05-23T13:06:06.990Z,21.00
2023-05-23T13:08:34.639Z,21.24
2023-05-23T13:11:02.989Z,21.40
2023-05-23T13:13:30.799Z,21.66
2023-05-23T13:15:58.504Z,21.77
2023-05-23T13:18:26.368Z,22.03
2023-05-23T13:20:54.176Z,22.14
2023-05-23T13:23:21.819Z,22.30
2023-05-23T13:25:51.287Z,22.31
2023-05-23T13:28:19.202Z,22.29
2023-05-23T13:30:47.472Z,22.30
2023-05-23T13:33:15.646Z,22.13
2023-05-23T13:35:44.289Z,22.10
2023-05-23T13:38:12.876Z,22.00
2023-05-23T13:40:40.891Z,21.84
2023-05-23T13:43:09.070Z,21.71
2023-05-23T13:45:36.957Z,21.56
2023-05-23T13:48:04.808Z,21.46
2023-05-23T13:50:32.552Z,21.48
2023-05-23T13:53:00.317Z,21.41
2023-05-23T13:55:27.947Z,21.40
2023-05-23T13:57:55.836Z,21.32
2023-05-23T14:00:23.523Z,21.26
2023-05-23T14:02:51.470Z,21.19
2023-05-23T14:05:19.707Z,21.07
2023-05-23T14:07:47.601Z,21.01
2023-05-23T14:10:17.448Z,21.08
2023-05-23T14:12:45.432Z,21.04
2023-05-23T14:15:13.042Z,21.01
2023-05-23T14:17:40.869Z,20.96
2023-05-23T14:20:09.249Z,20.82
2023-05-23T14:22:36.910Z,20.75
2023-05-23T14:25:04.899Z,20.81
2023-05-23T14:27:34.154Z,20.69
2023-05-23T14:30:01.903Z,20.75
2023-05-23T14:32:38.923Z,20.70
2023-05-23T14:35:08.749Z,20.80
2023-05-23T14:37:36.745Z,20.77
2023-05-23T14:40:05.905Z,20.74
2023-05-23T14:42:34.189Z,20.78
2023-05-23T14:45:02.004Z,20.78
2023-05-23T14:47:32.719Z,20.77
2023-05-23T14:50:00.583Z,20.85
2023-05-23T14:52:28.450Z,20.85
2023-05-23T14:54:56.120Z,20.81
2023-05-23T14:57:24.171Z,20.85
2023-05-23T14:59:51.833Z,20.86
2023-05-23T15:02:20.121Z,20.76
2023-05-23T15:04:48.853Z,20.67
2023-05-23T15:07:18.387Z,20.66
2023-05-23T15:09:47.914Z,20.70
2023-05-23T15:12:15.800Z,20.61
2023-05-23T15:14:43.659Z,20.61
2023-05-23T15:17:13.151Z,20.56
2023-05-23T15:19:43.242Z,20.48
2023-05-23T15:22:15.534Z,20.49
2023-05-23T15:24:50.236Z,20.45
2023-05-23T15:27:20.909Z,20.33
2023-05-23T15:29:48.937Z,20.38
2023-05-23T15:32:16.897Z,20.24
2023-05-23T15:34:45.211Z,20.32
2023-05-23T15:37:12.824Z,20.22
2023-05-23T15:39:40.562Z,20.24
2023-05-23T15:42:08.242Z,20.18
2023-05-23T15:44:35.934Z,20.09
2023-05-23T15:47:03.709Z,20.12
2023-05-23T15:49:31.353Z,20.08
2023-05-23T15:51:58.949Z,20.00
2023-05-23T15:54:26.792Z,19.92
2023-05-23T15:56:54.418Z,19.93
2023-05-23T15:59:22.037Z,19.93
2023-05-23T16:01:49.621Z,19.88
2023-05-23T16:04:17.417Z,19.82
2023-05-23T16:06:45.026Z,19.77
2023-05-23T16:09:12.708Z,19.79
2023-05-23T16:11:40.392Z,19.77
2023-05-23T16:14:08.301Z,19.75
2023-05-23T16:16:36.045Z,19.76
2023-05-23T16:19:03.719Z,19.76
2023-05-23T16:21:32.319Z,19.70
2023-05-23T16:24:00.067Z,19.78
2023-05-23T16:26:28.298Z,19.72
2023-05-23T16:28:56.004Z,19.76
2023-05-23T16:31:28.733Z,19.68
2023-05-23T16:33:56.334Z,19.74
2023-05-23T16:36:23.922Z,19.72
2023-05-23T16:38:52.968Z,19.73
2023-05-23T16:41:22.505Z,19.69
2023-05-23T16:43:50.116Z,19.61
2023-05-23T16:46:20.290Z,19.57
2023-05-23T16:48:48.797Z,19.61
2023-05-23T16:51:16.580Z,19.53
2023-05-23T16:53:44.443Z,19.57
2023-05-23T16:56:12.071Z,19.55
2023-05-23T16:58:39.783Z,19.48
2023-05-23T17:01:08.667Z,19.44
2023-05-23T17:03:36.517Z,19.42
2023-05-23T17:06:04.325Z,19.35
2023-05-23T17:08:32.052Z,19.29
2023-05-23T17:10:59.658Z,19.30
2023-05-23T17:13:27.689Z,19.29
2023-05-23T17:15:55.279Z,19.26
2023-05-23T17:18:23.444Z,19.21
2023-05-23T17:20:51.136Z,19.22
2023-05-23T17:23:19.264Z,19.21
2023-05-23T17:25:47.036Z,19.15
2023-05-23T17:28:14.723Z,19.14
2023-05-23T17:30:42.347Z,19.09
2023-05-23T17:33:11.622Z,19.01
2023-05-23T17:35:39.686Z,18.92
2023-05-23T17:38:08.903Z,18.86
2023-05-23T17:40:37.362Z,18.71
2023-05-23T17:43:05.062Z,18.68
2023-05-23T17:45:32.681Z,18.60
2023-05-23T17:48:03.556Z,18.47
2023-05-23T17:50:31.495Z,18.50
2023-05-23T17:52:59.729Z,18.42
2023-05-23T17:55:28.227Z,18.31
2023-05-23T17:58:00.379Z,18.31
2023-05-23T18:00:28.910Z,18.23
2023-05-23T18:02:56.635Z,18.10
2023-05-23T18:05:24.366Z,18.13
2023-05-23T18:07:51.895Z,18.10
2023-05-23T18:10:19.741Z,17.99
2023-05-23T18:12:48.043Z,18.01
2023-05-23T18:15:16.043Z,17.88
2023-05-23T18:17:54.225Z,17.94
2023-05-23T18:20:22.878Z,17.93
2023-05-23T18:22:55.489Z,17.85
2023-05-23T18:25:28.223Z,17.87
2023-05-23T18:27:58.785Z,17.78
2023-05-23T18:30:27.242Z,17.86
2023-05-23T18:32:55.884Z,17.82
2023-05-23T18:35:25.726Z,17.77
2023-05-23T18:37:54.487Z,17.83
2023-05-23T18:40:27.284Z,17.74
2023-05-23T18:42:55.100Z,17.81
2023-05-23T18:45:23.025Z,17.79
2023-05-23T18:47:51.394Z,17.78
2023-05-23T18:50:20.429Z,17.77
2023-05-23T18:52:48.162Z,17.78
2023-05-23T18:55:17.050Z,17.78
2023-05-23T18:57:44.666Z,17.69
2023-05-23T19:00:13.246Z,17.67
2023-05-23T19:02:44.543Z,17.76
2023-05-23T19:05:12.993Z,17.72
2023-05-23T19:07:40.878Z,17.67
2023-05-23T19:10:08.823Z,17.73
2023-05-23T19:12:39.525Z,17.76
2023-05-23T19:15:10.894Z,17.67
2023-05-23T19:17:43.112Z,17.74
2023-05-23T19:20:18.568Z,17.79
2023-05-23T19:22:51.851Z,17.82
2023-05-23T19:25:21.766Z,17.83
2023-05-23T19:27:49.628Z,17.76
2023-05-23T19:30:17.230Z,17.85
2023-05-23T19:32:45.233Z,17.88
2023-05-23T19:35:17.051Z,17.89
2023-05-23T19:37:45.713Z,17.90
2023-05-23T19:40:13.636Z,17.84
2023-05-23T19:42:41.517Z,17.92
2023-05-23T19:45:09.970Z,17.91
2023-05-23T19:47:37.909Z,17.90
2023-05-23T19:50:12.997Z,17.97
2023-05-23T19:52:42.132Z,17.95
2023-05-23T19:55:10.554Z,17.96
2023-05-23T19:57:38.171Z,17.97
2023-05-23T20:00:06.499Z,17.89
2023-05-23T20:02:35.649Z,17.97
2023-05-23T20:05:03.284Z,17.96
2023-05-23T20:07:32.550Z,17.89
2023-05-23T20:10:00.208Z,17.97
2023-05-23T20:12:27.799Z,17.92
2023-05-23T20:14:55.912Z,17.96
2023-05-23T20:17:23.861Z,17.88
2023-05-23T20:19:51.550Z,17.95
2023-05-23T20:22:19.157Z,17.86
2023-05-23T20:24:47.023Z,17.93
2023-05-23T20:27:16.130Z,17.93
2023-05-23T20:29:43.914Z,17.92
2023-05-23T20:32:11.504Z,17.86
2023-05-23T20:34:39.298Z,17.91
2023-05-23T20:37:06.969Z,17.93
2023-05-23T20:39:35.008Z,17.88
2023-05-23T20:42:02.676Z,17.89
2023-05-23T20:44:30.358Z,17.80
2023-05-23T20:46:57.938Z,17.79
2023-05-23T20:49:27.039Z,17.85
2023-05-23T20:51:54.704Z,17.75
2023-05-23T20:54:22.335Z,17.74
2023-05-23T20:56:52.653Z,17.81
2023-05-23T20:59:26.341Z,17.77
2023-05-23T21:01:54.071Z,17.76
2023-05-23T21:04:21.775Z,17.78
2023-05-23T21:06:49.670Z,17.68
2023-05-23T21:09:17.399Z,17.76
2023-05-23T21:11:45.003Z,17.77
2023-05-23T21:14:14.002Z,17.78
2023-05-23T21:16:41.728Z,17.81
2023-05-23T21:19:09.467Z,17.73
2023-05-23T21:21:37.730Z,17.73
2023-05-23T21:24:06.494Z,17.82
2023-05-23T21:26:34.167Z,17.81
2023-05-23T21:29:01.871Z,17.83
2023-05-23T21:31:40.378Z,17.66
2023-05-23T21:34:22.500Z,17.81
2023-05-23T21:36:52.823Z,17.81
2023-05-23T21:39:21.009Z,17.81
2023-05-23T21:41:48.688Z,17.78
2023-05-23T21:44:17.821Z,17.80
2023-05-23T21:46:45.873Z,17.77
2023-05-23T21:49:13.725Z,17.75
2023-05-23T21:51:42.160Z,17.72
2023-05-23T21:54:10.017Z,17.71
2023-05-23T21:56:37.696Z,17.70
2023-05-23T21:59:05.594Z,17.66
2023-05-23T22:01:33.323Z,17.59
2023-05-23T22:04:01.553Z,17.60
2023-05-23T22:06:29.605Z,17.65
2023-05-23T22:08:57.255Z,17.64
2023-05-23T22:11:29.648Z,17.65
2023-05-23T22:13:57.396Z,17.58
2023-05-23T22:16:26.106Z,17.57
2023-05-23T22:18:54.125Z,17.67
2023-05-23T22:21:21.829Z,17.65
2023-05-23T22:23:49.529Z,17.67
2023-05-23T22:26:17.859Z,17.69
2023-05-23T22:28:46.297Z,17.70
2023-05-23T22:31:14.848Z,17.69
2023-05-23T22:33:42.801Z,17.71
2023-05-23T22:36:10.675Z,17.70
2023-05-23T22:38:38.401Z,17.72
2023-05-23T22:41:06.149Z,17.71
2023-05-23T22:43:33.867Z,17.72
2023-05-23T22:46:01.701Z,17.66
2023-05-23T22:48:34.155Z,17.64
2023-05-23T22:51:03.118Z,17.76
2023-05-23T22:53:31.278Z,17.76
2023-05-23T22:55:59.265Z,17.75
2023-05-23T22:58:27.123Z,17.75
2023-05-23T23:00:54.700Z,17.72
2023-05-23T23:03:22.569Z,17.76
2023-05-23T23:05:50.711Z,17.73
2023-05-23T23:08:19.504Z,17.75
2023-05-23T23:10:47.345Z,17.74
2023-05-23T23:13:15.108Z,17.71
2023-05-23T23:15:43.241Z,17.70
2023-05-23T23:18:13.862Z,17.67
2023-05-23T23:20:42.009Z,17.64
2023-05-23T23:23:09.916Z,17.55
2023-05-23T23:25:37.991Z,17.52
2023-05-23T23:28:06.116Z,17.51
2023-05-23T23:30:33.829Z,17.53
2023-05-23T23:33:01.605Z,17.48
2023-05-23T23:35:29.456Z,17.47
2023-05-23T23:37:57.194Z,17.37
2023-05-23T23:40:24.877Z,17.45
2023-05-23T23:42:52.551Z,17.42
2023-05-23T23:45:20.594Z,17.42
2023-05-23T23:47:48.230Z,17.37
2023-05-23T23:50:15.978Z,17.34
2023-05-23T23:52:44.028Z,17.24
2023-05-23T23:55:11.665Z,17.29
2023-05-23T23:57:39.279Z,17.25
